Skip Navigation LinksHome page > Tools > METAR decoder Skip Navigation Links

METAR decoder



Chicago O'Hare Intl, Chicago

For information only: do not use for flight planning or navigation.
Latest weather
Observation time Saturday, October 3, 2015 9:51 PM CDT
Local time Saturday, October 3, 2015 10:12 PM CDT
Flight conditions Marginal Visual Meteorological Conditions
Wind direction East-Northeast (70°)
Wind speed 15 mph
Wind gusting to 25 mph
Peak wind speed 30 mph, 9:32 PM
Peak wind direction East-Northeast (70°)
Visibility 10 mi.
Sky condition
Ceiling 1,400 ft. overcast
Cloud layer overcast 1,400 ft.
Temperature 50°F
Dewpoint 45°F
Altimeter 30.20 in.Hg
Pressure change last 3 hours0.01 in.Hg
Pressure falling more slowly
Precipitation last 3 hours trace
Derived measurements
Relative humidity 83%
Wind chill 45°F
Density altitude -103 ft.
Sea-level pressure 30.20 in.Hg
Automated weather observing station with precipitation discriminator.
METAR KORD 040251Z 07013G22KT 10SM OVC014 10/07 A3020 RMK AO2 PK WND 07026/0232 SLP228 60000 T01000072 56005

InnerDrive.Weather 4.0.5722.1 Release CLR 4.0.30319.34014
Copyright ©2015 Inner Drive Technology. All rights reserved. Portions Copyright ©1986-2015 David Braverman.

Find weather

Site navigation

Skip Navigation Links

Place info

Page info

PayPal - The safer, easier way to pay online!

Return home.

Copyright ©2015 Inner Drive Technology. Purveyors of fine, hand-crafted computer software. Page printed 2015-10-04T03:12:39 UTC.